Witham, United Kingdom
Current Conditions -  °F | °C
As of 7:20 PM on Friday 31 Oct 2014 (Local Time) from EGMC Reporting Station
Clear Clear  
Wind Chill: 63°   Ceiling: Unl
Heat Index: 63°   Visibility: 6mi
Dew Point: 52°   Wind: 13mph
Humidity: 68%   Direction: 190°S
Pressure: 29.97"   Gusts: NA
Location:  51.8°N, 0.64°E
Report Text: EGMC 311920Z 19011KT CAVOK 17/11 Q1015
Loading
Personal Weather Stations






























Interactive Weather Map
Tropical Storm Tracking
New forecast layout! Learn more

10-Day Weather Forecast

Advertisements
Track Severe Weather on mobile